Aérodrome :
LOGIN :

S'inscrire | Disclaimer

   EN    FR    IT 

 










Légende :    VFR   VFR Marginal   IFR   IFR Intensif   IFR Très Intensif
Visi : 
Plafond : 
>= 8 km
>= 3000ft
5 à 8 km
1000 à 3000 ft
1500m à 5 km
500 à 1000 ft
800 à 1500m
200 à 500 ft
< 800m
< 200 ft
Symboles :   Orages  Brouillard  Fortes neiges  Fortes précipitations  Vent > 20 kt
SIGMETs :   Divers  Orages  Givrage  Turbulence  Onde Orograph.  Cendres Volcan.







- Altitude de l'aérodrome : 14 ft
- Code IATA : BRE


EDDW - Bremen Neuenland

DERNIER METAR :
  • 140750Z 24016KT 9999 -RA BKN015 BKN060 03/02 Q0987 R88/290095 BECMG BKN012

METARs EXPIRÉS :
  • 140720Z 24016KT 9999 BKN015 04/02 Q0986 R88/290095 NOSIG
  • 140650Z 24013KT 9999 BKN015 04/02 Q0986 R88/290095 NOSIG
  • 140620Z 24012KT 9999 FEW016 BKN100 04/02 Q0986 R88/290095 NOSIG
  • 140550Z 23012KT 9999 FEW016 SCT055 BKN280 04/02 Q0986 R88/290095 NOSIG
  • 140520Z 23014KT 9999 BKN016 04/02 Q0985 R88/290095 NOSIG

TAF TAF EDDW
Valide du 14 à 06h jusqu'au 15 à 06h UTC


140500Z 1406/1506 24013KT 9999 BKN025
TEMPO 1406/1415 24020G30KT 3000 SHRASN BKN013CB
BECMG 1417/1420 21007KT
TEMPO 1500/1506 BKN013
Pas de NOTAMs connus pour ce terrain.



MET'MAP, la Météo Aéronautique d'un coup d'oeil ! - Copyright ORBIFLY Décembre 2007 - Disclaimer

ORBIFLY MET'MAP TEAM :

Programmation & Développement : Alexandra Zaïnal
Conception & Développement : Baudouin d'Aumeries
Co-Programmation & Développement : Marc-Olivier Méhu
Soutien technique & logistique : Manuel Goepfert

Contact : metmap@orbifly.com




SOURCES & CREDITS :

   NOAA